createdAt,value
2023-02-11T00:01:27.766Z,-3.18
2023-02-11T00:03:55.196Z,-3.20
2023-02-11T00:06:23.006Z,-3.10
2023-02-11T00:08:49.856Z,-3.01
2023-02-11T00:11:19.034Z,-3.04
2023-02-11T00:13:46.865Z,-3.00
2023-02-11T00:16:19.928Z,-3.03
2023-02-11T00:18:47.607Z,-2.98
2023-02-11T00:21:17.934Z,-2.77
2023-02-11T00:23:46.217Z,-2.77
2023-02-11T00:26:27.446Z,-2.85
2023-02-11T00:28:54.457Z,-2.87
2023-02-11T00:31:22.937Z,-2.78
2023-02-11T00:33:50.376Z,-2.72
2023-02-11T00:36:26.401Z,-2.81
2023-02-11T00:38:54.438Z,-2.67
2023-02-11T00:41:22.150Z,-2.93
2023-02-11T00:43:49.105Z,-2.92
2023-02-11T00:46:20.850Z,-2.75
2023-02-11T00:48:48.185Z,-2.80
2023-02-11T00:51:15.310Z,-2.92
2023-02-11T00:53:42.185Z,-2.87
2023-02-11T00:56:09.806Z,-2.98
2023-02-11T00:58:36.845Z,-2.85
2023-02-11T01:01:04.302Z,-2.70
2023-02-11T01:03:31.491Z,-2.75
2023-02-11T01:05:58.381Z,-3.02
2023-02-11T01:08:25.533Z,-3.01
2023-02-11T01:10:57.899Z,-3.15
2023-02-11T01:13:25.358Z,-3.26
2023-02-11T01:15:54.770Z,-3.27
2023-02-11T01:18:21.858Z,-3.40
2023-02-11T01:20:49.199Z,-3.47
2023-02-11T01:23:16.668Z,-3.52
2023-02-11T01:25:44.382Z,-3.51
2023-02-11T01:28:19.188Z,-3.34
2023-02-11T01:30:46.454Z,-3.54
2023-02-11T01:33:13.529Z,-3.64
2023-02-11T01:35:40.609Z,-3.51
2023-02-11T01:38:14.020Z,-3.56
2023-02-11T01:40:40.952Z,-3.56
2023-02-11T01:43:10.649Z,-3.64
2023-02-11T01:45:47.080Z,-3.61
2023-02-11T01:48:19.864Z,-3.65
2023-02-11T01:50:53.497Z,-3.79
2023-02-11T01:53:39.971Z,-3.92
2023-02-11T01:56:27.057Z,-3.71
2023-02-11T01:59:02.870Z,-3.70
2023-02-11T02:01:33.758Z,-3.72
2023-02-11T02:04:05.536Z,-3.79
2023-02-11T02:06:35.538Z,-3.77
2023-02-11T02:09:11.418Z,-3.68
2023-02-11T02:11:38.489Z,-3.51
2023-02-11T02:14:05.452Z,-3.39
2023-02-11T02:16:35.093Z,-3.61
2023-02-11T02:19:19.963Z,-3.56
2023-02-11T02:22:05.132Z,-3.37
2023-02-11T02:24:51.777Z,-3.54
2023-02-11T02:27:29.210Z,-3.74
2023-02-11T02:30:40.546Z,-3.81
2023-02-11T02:33:22.395Z,-3.81
2023-02-11T02:36:23.397Z,-3.88
2023-02-11T02:38:59.212Z,-3.84
2023-02-11T02:41:32.608Z,-3.83
2023-02-11T02:44:00.205Z,-3.78
2023-02-11T02:46:30.247Z,-3.90
2023-02-11T02:48:58.274Z,-3.84
2023-02-11T02:51:40.225Z,-3.79
2023-02-11T02:54:07.067Z,-3.84
2023-02-11T02:57:08.426Z,-3.88
2023-02-11T03:00:02.424Z,-4.16
2023-02-11T03:02:44.130Z,-4.21
2023-02-11T03:05:19.021Z,-4.26
2023-02-11T03:07:55.408Z,-4.38
2023-02-11T03:10:26.113Z,-4.50
2023-02-11T03:12:54.787Z,-4.44
2023-02-11T03:15:24.826Z,-4.43
2023-02-11T03:17:54.900Z,-4.28
2023-02-11T03:20:23.135Z,-4.14
2023-02-11T03:22:56.060Z,-4.05
2023-02-11T03:25:30.079Z,-3.95
2023-02-11T03:28:14.859Z,-3.95
2023-02-11T03:30:49.433Z,-4.27
2023-02-11T03:33:51.757Z,-4.21
2023-02-11T03:36:27.968Z,-4.28
2023-02-11T03:38:58.780Z,-4.03
2023-02-11T03:41:26.241Z,-4.19
2023-02-11T03:43:58.341Z,-4.24
2023-02-11T03:46:31.976Z,-3.97
2023-02-11T03:49:04.261Z,-3.98
2023-02-11T03:51:33.374Z,-4.07
2023-02-11T03:54:04.638Z,-4.19
2023-02-11T03:56:36.734Z,-4.17
2023-02-11T03:59:03.639Z,-4.04
2023-02-11T04:01:30.915Z,-3.95
2023-02-11T04:03:57.803Z,-3.80
2023-02-11T04:06:24.635Z,-3.66
2023-02-11T04:08:51.500Z,-3.43
2023-02-11T04:11:18.624Z,-3.30
2023-02-11T04:13:45.427Z,-3.67
2023-02-11T04:16:12.419Z,-3.75
2023-02-11T04:18:39.257Z,-3.79
2023-02-11T04:21:06.268Z,-3.92
2023-02-11T04:23:33.208Z,-4.21
2023-02-11T04:25:59.997Z,-4.28
2023-02-11T04:28:29.525Z,-4.27
2023-02-11T04:30:56.543Z,-4.38
2023-02-11T04:33:23.493Z,-4.32
2023-02-11T04:35:50.695Z,-4.33
2023-02-11T04:38:17.827Z,-4.40
2023-02-11T04:40:44.966Z,-4.48
2023-02-11T04:43:11.904Z,-4.67
2023-02-11T04:45:38.758Z,-4.57
2023-02-11T04:48:05.743Z,-4.64
2023-02-11T04:50:32.872Z,-4.54
2023-02-11T04:52:59.644Z,-4.52
2023-02-11T04:55:26.889Z,-4.54
2023-02-11T04:57:53.860Z,-4.49
2023-02-11T05:00:20.936Z,-4.59
2023-02-11T05:02:47.748Z,-4.48
2023-02-11T05:05:14.556Z,-4.40
2023-02-11T05:07:41.310Z,-4.34
2023-02-11T05:10:08.367Z,-4.26
2023-02-11T05:12:35.154Z,-4.31
2023-02-11T05:15:01.986Z,-4.30
2023-02-11T05:17:28.864Z,-4.29
2023-02-11T05:19:55.707Z,-4.20
2023-02-11T05:22:22.578Z,-4.22
2023-02-11T05:24:50.247Z,-4.22
2023-02-11T05:27:17.112Z,-4.01
2023-02-11T05:29:44.085Z,-3.62
2023-02-11T05:32:10.964Z,-3.42
2023-02-11T05:34:37.899Z,-3.37
2023-02-11T05:37:04.856Z,-3.40
2023-02-11T05:39:31.696Z,-3.05
2023-02-11T05:41:58.514Z,-2.63
2023-02-11T05:44:25.315Z,-2.21
2023-02-11T05:46:52.151Z,-1.66
2023-02-11T05:49:19.081Z,-1.00
2023-02-11T05:51:46.037Z,-1.20
2023-02-11T05:54:13.176Z,-1.02
2023-02-11T05:56:40.041Z,-1.07
2023-02-11T05:59:06.902Z,-1.23
2023-02-11T06:01:33.854Z,-1.19
2023-02-11T06:04:00.868Z,-1.36
2023-02-11T06:06:27.961Z,-1.16
2023-02-11T06:08:54.935Z,-0.79
2023-02-11T06:11:21.799Z,-1.01
2023-02-11T06:13:48.648Z,-0.98
2023-02-11T06:16:15.695Z,-1.04
2023-02-11T06:18:42.809Z,-0.93
2023-02-11T06:21:11.321Z,-0.72
2023-02-11T06:23:38.647Z,-0.45
2023-02-11T06:26:15.815Z,-0.26
2023-02-11T06:28:42.740Z,-0.42
2023-02-11T06:31:10.427Z,0.01
2023-02-11T06:33:38.578Z,0.02
2023-02-11T06:36:12.246Z,0.03
2023-02-11T06:38:39.086Z,0.23
2023-02-11T06:41:05.903Z,0.66
2023-02-11T06:43:32.791Z,0.71
2023-02-11T06:45:59.601Z,0.68
2023-02-11T06:48:26.544Z,0.70
2023-02-11T06:50:53.505Z,0.84
2023-02-11T06:53:20.321Z,1.01
2023-02-11T06:55:47.207Z,1.16
2023-02-11T06:58:14.425Z,1.54
2023-02-11T07:00:41.316Z,1.67
2023-02-11T07:03:08.554Z,1.78
2023-02-11T07:05:37.226Z,1.91
2023-02-11T07:08:04.425Z,1.93
2023-02-11T07:10:31.307Z,2.14
2023-02-11T07:12:58.907Z,2.12
2023-02-11T07:15:26.014Z,2.43
2023-02-11T07:17:52.988Z,2.70
2023-02-11T07:20:20.018Z,2.49
2023-02-11T07:22:46.862Z,2.36
2023-02-11T07:25:13.737Z,2.37
2023-02-11T07:27:40.604Z,2.58
2023-02-11T07:30:08.091Z,2.49
2023-02-11T07:32:34.944Z,2.69
2023-02-11T07:35:01.844Z,2.70
2023-02-11T07:37:28.715Z,3.04
2023-02-11T07:39:55.624Z,3.15
2023-02-11T07:42:22.522Z,3.17
2023-02-11T07:44:50.659Z,3.05
2023-02-11T07:47:17.875Z,2.99
2023-02-11T07:49:45.949Z,3.18
2023-02-11T07:52:12.778Z,3.38
2023-02-11T07:54:39.613Z,3.47
2023-02-11T07:57:06.781Z,3.76
2023-02-11T07:59:33.703Z,3.90
2023-02-11T08:02:00.735Z,3.97
2023-02-11T08:04:27.614Z,4.01
2023-02-11T08:06:58.995Z,4.15
2023-02-11T08:09:26.071Z,3.91
2023-02-11T08:11:52.981Z,4.07
2023-02-11T08:14:20.678Z,4.13
2023-02-11T08:16:47.713Z,4.34
2023-02-11T08:19:16.538Z,4.33
2023-02-11T08:21:44.482Z,4.45
2023-02-11T08:24:11.804Z,4.45
2023-02-11T08:26:38.785Z,4.58
2023-02-11T08:29:11.727Z,4.60
2023-02-11T08:31:41.663Z,4.65
2023-02-11T08:34:10.110Z,4.84
2023-02-11T08:36:38.916Z,4.73
2023-02-11T08:39:18.610Z,4.68
2023-02-11T08:41:52.332Z,5.18
2023-02-11T08:44:20.955Z,5.15
2023-02-11T08:46:48.436Z,5.44
2023-02-11T08:49:16.528Z,5.61
2023-02-11T08:51:44.566Z,5.34
2023-02-11T08:54:12.408Z,5.52
2023-02-11T08:56:39.481Z,4.94
2023-02-11T08:59:07.664Z,5.32
2023-02-11T09:01:35.484Z,5.49
2023-02-11T09:04:03.005Z,5.78
2023-02-11T09:06:30.174Z,5.89
2023-02-11T09:08:59.237Z,5.31
2023-02-11T09:11:30.184Z,5.64
2023-02-11T09:13:57.358Z,6.04
2023-02-11T09:16:27.123Z,6.43
2023-02-11T09:18:56.479Z,5.92
2023-02-11T09:21:23.571Z,6.30
2023-02-11T09:23:50.737Z,6.63
2023-02-11T09:26:29.301Z,6.68
2023-02-11T09:28:56.749Z,6.14
2023-02-11T09:31:26.757Z,6.05
2023-02-11T09:34:00.006Z,6.11
2023-02-11T09:36:30.560Z,6.03
2023-02-11T09:38:59.875Z,6.02
2023-02-11T09:41:46.294Z,6.64
2023-02-11T09:44:39.936Z,6.62
2023-02-11T09:47:18.311Z,7.06
2023-02-11T09:49:50.189Z,7.38
2023-02-11T09:52:47.954Z,7.48
2023-02-11T09:55:20.724Z,7.52
2023-02-11T09:57:47.828Z,7.40
2023-02-11T10:00:33.299Z,7.13
2023-02-11T10:03:21.455Z,7.48
2023-02-11T10:06:01.026Z,7.55
2023-02-11T10:08:37.408Z,7.77
2023-02-11T10:11:30.596Z,7.49
2023-02-11T10:14:16.234Z,7.23
2023-02-11T10:17:14.134Z,7.75
2023-02-11T10:20:11.921Z,7.15
2023-02-11T10:22:55.863Z,7.45
2023-02-11T10:25:28.564Z,8.16
2023-02-11T10:27:59.896Z,7.78
2023-02-11T10:30:35.046Z,8.13
2023-02-11T10:33:17.684Z,8.25
2023-02-11T10:35:45.798Z,8.86
2023-02-11T10:38:13.236Z,8.72
2023-02-11T10:40:40.413Z,8.33
2023-02-11T10:43:14.015Z,7.82
2023-02-11T10:45:55.230Z,7.37
2023-02-11T10:48:41.031Z,8.10
2023-02-11T10:51:12.827Z,8.44
2023-02-11T10:53:41.824Z,8.53
2023-02-11T10:56:12.865Z,7.97
2023-02-11T10:59:05.625Z,8.09
2023-02-11T11:01:49.446Z,7.79
2023-02-11T11:04:34.305Z,8.60
2023-02-11T11:07:31.649Z,8.99
2023-02-11T11:10:24.236Z,8.00
2023-02-11T11:12:51.535Z,8.45
2023-02-11T11:15:22.514Z,8.13
2023-02-11T11:17:51.407Z,8.37
2023-02-11T11:20:24.074Z,9.00
2023-02-11T11:22:54.598Z,8.63
2023-02-11T11:25:26.042Z,9.00
2023-02-11T11:27:56.026Z,9.24
2023-02-11T11:30:27.698Z,9.56
2023-02-11T11:32:55.086Z,8.95
2023-02-11T11:35:28.060Z,9.48
2023-02-11T11:38:02.154Z,9.26
2023-02-11T11:40:34.077Z,9.16
2023-02-11T11:43:15.062Z,9.52
2023-02-11T11:46:00.032Z,9.19
2023-02-11T11:48:42.896Z,9.07
2023-02-11T11:51:13.104Z,9.24
2023-02-11T11:54:02.512Z,9.23
2023-02-11T11:56:34.119Z,9.13
2023-02-11T11:59:06.731Z,9.59
2023-02-11T12:02:17.752Z,8.98
2023-02-11T12:05:06.982Z,9.08
2023-02-11T12:07:45.869Z,9.10
2023-02-11T12:10:32.051Z,8.78
2023-02-11T12:13:08.035Z,9.56
2023-02-11T12:15:55.709Z,9.96
2023-02-11T12:18:38.204Z,9.47
2023-02-11T12:21:37.084Z,9.31
2023-02-11T12:24:49.668Z,9.76
2023-02-11T12:27:35.188Z,9.59
2023-02-11T12:30:23.998Z,9.41
2023-02-11T12:33:24.774Z,9.93
2023-02-11T12:36:15.243Z,9.78
2023-02-11T12:39:26.114Z,9.87
2023-02-11T12:42:40.119Z,10.02
2023-02-11T12:45:14.006Z,10.25
2023-02-11T12:48:11.472Z,10.52
2023-02-11T12:51:07.697Z,10.78
2023-02-11T12:53:53.904Z,10.88
2023-02-11T12:57:14.897Z,10.99
2023-02-11T12:59:52.228Z,10.68
2023-02-11T13:02:41.263Z,10.36
2023-02-11T13:05:33.848Z,10.31
2023-02-11T13:08:30.991Z,10.28
2023-02-11T13:11:21.909Z,10.49
2023-02-11T13:14:17.733Z,10.12
2023-02-11T13:16:47.958Z,10.10
2023-02-11T13:19:14.902Z,10.21
2023-02-11T13:21:44.701Z,10.16
2023-02-11T13:24:36.455Z,9.56
2023-02-11T13:27:37.111Z,9.49
2023-02-11T13:30:28.042Z,9.69
2023-02-11T13:32:54.857Z,9.66
2023-02-11T13:35:40.342Z,9.63
2023-02-11T13:38:24.163Z,9.18
2023-02-11T13:41:28.580Z,9.44
2023-02-11T13:44:20.649Z,9.70
2023-02-11T13:46:56.072Z,9.33
2023-02-11T13:49:32.106Z,9.54
2023-02-11T13:52:01.801Z,9.92
2023-02-11T13:54:33.609Z,9.93
2023-02-11T13:57:22.324Z,9.99
2023-02-11T13:59:53.277Z,9.99
2023-02-11T14:02:49.777Z,10.02
2023-02-11T14:05:41.102Z,9.56
2023-02-11T14:08:29.553Z,9.71
2023-02-11T14:11:08.572Z,8.99
2023-02-11T14:14:03.029Z,8.95
2023-02-11T14:16:37.908Z,9.08
2023-02-11T14:19:06.472Z,8.86
2023-02-11T14:21:38.143Z,8.77
2023-02-11T14:24:07.160Z,8.72
2023-02-11T14:26:43.107Z,8.86
2023-02-11T14:29:25.720Z,9.02
2023-02-11T14:32:38.181Z,8.74
2023-02-11T14:35:22.576Z,8.79
2023-02-11T14:38:21.379Z,8.76
2023-02-11T14:41:11.204Z,8.54
2023-02-11T14:43:48.722Z,8.58
2023-02-11T14:46:17.804Z,8.50
2023-02-11T14:48:50.516Z,8.20
2023-02-11T14:51:23.382Z,8.21
2023-02-11T14:53:57.999Z,7.98
2023-02-11T14:56:27.973Z,7.82
2023-02-11T14:58:55.635Z,7.64
2023-02-11T15:01:34.058Z,7.74
2023-02-11T15:04:03.457Z,7.51
2023-02-11T15:06:37.698Z,7.39
2023-02-11T15:09:13.425Z,7.32
2023-02-11T15:11:43.271Z,7.40
2023-02-11T15:14:16.687Z,7.32
2023-02-11T15:16:45.645Z,7.07
2023-02-11T15:19:29.000Z,6.90
2023-02-11T15:21:57.001Z,6.89
2023-02-11T15:24:27.201Z,6.75
2023-02-11T15:26:56.856Z,6.68
2023-02-11T15:29:29.290Z,6.66
2023-02-11T15:32:12.413Z,6.51
2023-02-11T15:34:39.470Z,6.41
2023-02-11T15:37:06.734Z,6.31
2023-02-11T15:39:38.043Z,6.31
2023-02-11T15:42:29.079Z,6.18
2023-02-11T15:45:14.348Z,6.07
2023-02-11T15:47:48.783Z,6.03
2023-02-11T15:50:37.152Z,5.88
2023-02-11T15:53:14.264Z,5.69
2023-02-11T15:55:42.143Z,5.75
2023-02-11T15:58:10.908Z,5.69
2023-02-11T16:00:46.856Z,5.73
2023-02-11T16:03:32.575Z,5.64
2023-02-11T16:06:41.613Z,5.31
2023-02-11T16:09:08.444Z,4.88
2023-02-11T16:11:53.839Z,4.94
2023-02-11T16:14:32.927Z,4.98
2023-02-11T16:17:04.950Z,4.85
2023-02-11T16:19:34.070Z,4.77
2023-02-11T16:22:10.296Z,4.23
2023-02-11T16:24:39.086Z,4.37
2023-02-11T16:27:30.661Z,4.25
2023-02-11T16:29:58.872Z,4.35
2023-02-11T16:32:28.715Z,4.27
2023-02-11T16:34:58.751Z,4.31
2023-02-11T16:37:26.117Z,4.33
2023-02-11T16:39:57.032Z,4.26
2023-02-11T16:42:24.580Z,4.15
2023-02-11T16:44:51.554Z,4.17
2023-02-11T16:47:31.180Z,4.07
2023-02-11T16:49:59.171Z,3.89
2023-02-11T16:52:26.555Z,3.96
2023-02-11T16:54:53.650Z,3.83
2023-02-11T16:57:23.366Z,3.74
2023-02-11T16:59:51.197Z,3.66
2023-02-11T17:02:26.079Z,3.56
2023-02-11T17:04:54.830Z,3.49
2023-02-11T17:07:22.189Z,3.34
2023-02-11T17:09:49.044Z,3.09
2023-02-11T17:12:15.920Z,3.08
2023-02-11T17:14:43.668Z,3.23
2023-02-11T17:17:11.345Z,3.24
2023-02-11T17:19:38.757Z,3.30
2023-02-11T17:22:06.271Z,3.31
2023-02-11T17:24:33.130Z,3.36
2023-02-11T17:27:00.006Z,3.14
2023-02-11T17:29:27.212Z,3.16
2023-02-11T17:31:54.509Z,3.08
2023-02-11T17:34:22.512Z,2.88
2023-02-11T17:36:50.064Z,2.69
2023-02-11T17:39:16.972Z,2.50
2023-02-11T17:41:43.785Z,2.46
2023-02-11T17:44:12.594Z,2.32
2023-02-11T17:46:39.776Z,2.22
2023-02-11T17:49:06.620Z,2.20
2023-02-11T17:51:36.101Z,2.14
2023-02-11T17:54:06.791Z,2.11
2023-02-11T17:56:35.411Z,2.22
2023-02-11T17:59:03.246Z,2.23
2023-02-11T18:01:31.834Z,2.21
2023-02-11T18:03:59.044Z,2.24
2023-02-11T18:06:26.315Z,2.03
2023-02-11T18:08:54.585Z,1.96
2023-02-11T18:11:25.232Z,1.89
2023-02-11T18:13:54.577Z,1.86
2023-02-11T18:16:22.444Z,1.86
2023-02-11T18:18:49.917Z,1.92
2023-02-11T18:21:19.913Z,1.72
2023-02-11T18:23:47.601Z,1.71
2023-02-11T18:26:15.920Z,1.66
2023-02-11T18:28:45.733Z,1.63
2023-02-11T18:31:14.275Z,1.71
2023-02-11T18:33:42.010Z,1.63
2023-02-11T18:36:13.879Z,1.62
2023-02-11T18:38:41.746Z,1.55
2023-02-11T18:41:08.677Z,1.57
2023-02-11T18:43:36.389Z,1.64
2023-02-11T18:46:09.167Z,1.55
2023-02-11T18:48:36.029Z,1.59
2023-02-11T18:51:02.931Z,1.55
2023-02-11T18:53:29.933Z,1.07
2023-02-11T18:55:56.751Z,1.23
2023-02-11T18:58:23.659Z,1.05
2023-02-11T19:00:50.777Z,1.22
2023-02-11T19:03:17.645Z,1.27
2023-02-11T19:05:46.881Z,1.26
2023-02-11T19:08:14.420Z,1.24
2023-02-11T19:10:43.210Z,1.22
2023-02-11T19:13:10.845Z,1.37
2023-02-11T19:15:45.522Z,1.21
2023-02-11T19:18:15.225Z,1.03
2023-02-11T19:20:43.706Z,1.03
2023-02-11T19:23:11.355Z,0.85
2023-02-11T19:25:45.586Z,0.74
2023-02-11T19:28:13.240Z,0.86
2023-02-11T19:30:40.441Z,0.75
2023-02-11T19:33:09.778Z,0.81
2023-02-11T19:35:37.033Z,0.75
2023-02-11T19:38:05.069Z,0.79
2023-02-11T19:40:32.501Z,0.49
2023-02-11T19:42:59.557Z,0.30
2023-02-11T19:45:27.090Z,0.45
2023-02-11T19:47:57.894Z,0.45
2023-02-11T19:50:25.475Z,0.33
2023-02-11T19:52:52.342Z,0.38
2023-02-11T19:55:19.282Z,0.29
2023-02-11T19:57:46.435Z,0.39
2023-02-11T20:00:13.772Z,0.22
2023-02-11T20:02:41.188Z,0.27
2023-02-11T20:05:09.086Z,0.29
2023-02-11T20:07:36.084Z,0.36
2023-02-11T20:10:03.395Z,0.35
2023-02-11T20:12:30.285Z,0.31
2023-02-11T20:14:57.180Z,0.24
2023-02-11T20:17:24.040Z,0.25
2023-02-11T20:19:51.616Z,0.24
2023-02-11T20:22:18.462Z,0.21
2023-02-11T20:24:45.416Z,0.13
2023-02-11T20:27:12.793Z,0.05
2023-02-11T20:29:40.007Z,0.05
2023-02-11T20:32:07.878Z,0.03
2023-02-11T20:34:34.839Z,0.09
2023-02-11T20:37:03.041Z,-0.08
2023-02-11T20:39:30.210Z,0.14
2023-02-11T20:41:58.267Z,0.27
2023-02-11T20:44:25.121Z,0.25
2023-02-11T20:46:54.081Z,0.11
2023-02-11T20:49:24.107Z,0.16
2023-02-11T20:51:53.447Z,0.15
2023-02-11T20:54:21.190Z,0.14
2023-02-11T20:56:48.600Z,0.07
2023-02-11T20:59:16.765Z,0.11
2023-02-11T21:01:47.165Z,-0.04
2023-02-11T21:04:20.137Z,-0.13
2023-02-11T21:06:49.479Z,-0.21
2023-02-11T21:09:21.950Z,-0.14
2023-02-11T21:11:49.343Z,-0.21
2023-02-11T21:14:16.215Z,-0.20
2023-02-11T21:16:42.994Z,-0.16
2023-02-11T21:19:09.957Z,-0.07
2023-02-11T21:21:37.932Z,0.09
2023-02-11T21:24:08.720Z,-0.10
2023-02-11T21:26:35.859Z,-0.27
2023-02-11T21:29:07.831Z,-0.27
2023-02-11T21:31:36.415Z,-0.45
2023-02-11T21:34:04.443Z,-0.62
2023-02-11T21:36:31.534Z,-0.69
2023-02-11T21:38:58.558Z,-0.61
2023-02-11T21:41:27.043Z,-0.60
2023-02-11T21:43:53.927Z,-0.52
2023-02-11T21:46:21.630Z,-0.72
2023-02-11T21:48:49.005Z,-0.57
2023-02-11T21:51:24.341Z,-0.62
2023-02-11T21:53:59.644Z,-0.67
2023-02-11T21:56:29.780Z,-0.49
2023-02-11T21:58:58.994Z,-0.47
2023-02-11T22:01:32.654Z,-0.29
2023-02-11T22:04:00.174Z,-0.28
2023-02-11T22:06:33.211Z,-0.39
2023-02-11T22:09:05.089Z,-0.39
2023-02-11T22:11:32.191Z,-0.57
2023-02-11T22:13:59.436Z,-0.69
2023-02-11T22:16:27.330Z,-0.75
2023-02-11T22:18:56.094Z,-0.93
2023-02-11T22:21:23.176Z,-0.87
2023-02-11T22:23:51.343Z,-0.82
2023-02-11T22:26:21.565Z,-0.93
2023-02-11T22:28:51.790Z,-1.05
2023-02-11T22:31:30.907Z,-1.00
2023-02-11T22:33:58.786Z,-0.96
2023-02-11T22:36:28.985Z,-0.87
2023-02-11T22:38:56.691Z,-1.03
2023-02-11T22:41:23.682Z,-0.88
2023-02-11T22:43:50.765Z,-0.74
2023-02-11T22:46:19.222Z,-0.49
2023-02-11T22:48:47.175Z,-0.31
2023-02-11T22:51:17.171Z,-0.35
2023-02-11T22:53:44.699Z,-0.57
2023-02-11T22:56:15.658Z,-0.61
2023-02-11T22:58:43.575Z,-0.66
2023-02-11T23:01:11.252Z,-0.66
2023-02-11T23:03:38.215Z,-0.65
2023-02-11T23:06:05.692Z,-0.58
2023-02-11T23:08:33.712Z,-0.61
2023-02-11T23:11:11.945Z,-0.67
2023-02-11T23:13:40.854Z,-0.81
2023-02-11T23:16:10.544Z,-0.84
2023-02-11T23:18:39.109Z,-0.90
2023-02-11T23:21:11.404Z,-0.68
2023-02-11T23:23:39.439Z,-0.42
2023-02-11T23:26:11.130Z,-0.27
2023-02-11T23:28:38.945Z,-0.23
2023-02-11T23:31:19.513Z,-0.16
2023-02-11T23:33:47.716Z,-0.32
2023-02-11T23:36:15.445Z,-0.36
2023-02-11T23:38:42.748Z,-0.50
2023-02-11T23:41:10.699Z,-0.38
2023-02-11T23:43:37.681Z,-0.33
2023-02-11T23:46:05.821Z,-0.33
2023-02-11T23:48:33.873Z,-0.37
2023-02-11T23:51:00.737Z,-0.28
2023-02-11T23:53:27.724Z,-0.27
2023-02-11T23:55:55.039Z,-0.07
2023-02-11T23:58:22.047Z,-0.16
